Time;durP1;ratioP1;P1;durP2;ratioP2;P2;SDS_P1;SDS_P2;PMS_P1;PMS_P2;Temp;Humidity;BMP_temperature;BMP_pressure;BME280_temperature;BME280_humidity;BME280_pressure;Samples;Min_cycle;Max_cycle;Signal;HPM_P1;HPM_P2
2023/10/08 00:00:53;;;;;;;;;19.60;18.00;;;;;;;;5076504;28;45326;-68
2023/10/08 00:03:20;;;;;;;;;21.00;19.00;;;;;;;;5076096;28;45354;-67
2023/10/08 00:05:46;;;;;;;;;19.75;18.50;;;;;;;;5084097;27;45429;-67
2023/10/08 00:08:12;;;;;;;;;16.25;14.75;;;;;;;;5096074;27;45619;-67
2023/10/08 00:10:41;;;;;;;;;19.00;17.80;;;;;;;;5096157;27;45484;-67
2023/10/08 00:13:09;;;;;;;;;17.50;17.50;;;;;;;;5096573;27;45305;-67
2023/10/08 00:15:41;;;;;;;;;18.00;17.00;;;;;;;;5077996;27;45517;-69
2023/10/08 00:18:07;;;;;;;;;22.00;19.25;;;;;;;;5096335;27;46440;-67
2023/10/08 00:20:43;;;;;;;;;19.50;17.25;;;;;;;;5096528;27;45435;-67
2023/10/08 00:23:09;;;;;;;;;22.75;18.50;;;;;;;;5096535;27;45327;-69
2023/10/08 00:25:40;;;;;;;;;23.75;20.25;;;;;;;;5096249;27;45518;-69
2023/10/08 00:28:10;;;;;;;;;19.00;16.00;;;;;;;;5096078;27;45447;-67
2023/10/08 00:30:38;;;;;;;;;20.25;16.00;;;;;;;;5095975;27;45380;-69
2023/10/08 00:33:04;;;;;;;;;18.25;17.25;;;;;;;;5096536;27;45474;-66
2023/10/08 00:35:29;;;;;;;;;21.00;18.50;;;;;;;;5096181;27;45398;-69
2023/10/08 00:38:00;;;;;;;;;20.50;19.00;;;;;;;;5096188;27;45467;-67
2023/10/08 00:40:29;;;;;;;;;23.00;18.00;;;;;;;;5096271;27;45531;-67
2023/10/08 00:42:56;;;;;;;;;17.50;17.50;;;;;;;;5096476;27;45336;-69
2023/10/08 00:45:22;;;;;;;;;19.25;16.00;;;;;;;;5096125;27;45376;-69
2023/10/08 00:47:47;;;;;;;;;21.50;18.25;;;;;;;;5096368;27;46190;-69
2023/10/08 00:50:20;;;;;;;;;17.00;15.00;;;;;;;;5095658;27;45335;-69
2023/10/08 00:52:59;;;;;;;;;18.50;17.50;;;;;;;;5096065;27;45301;-69
2023/10/08 00:55:34;;;;;;;;;17.75;17.75;;;;;;;;5096181;27;45488;-69
2023/10/08 00:58:08;;;;;;;;;19.75;18.00;;;;;;;;5096215;27;46489;-69
2023/10/08 01:00:37;;;;;;;;;22.50;18.50;;;;;;;;5096023;27;45437;-69
2023/10/08 01:03:14;;;;;;;;;19.75;18.00;;;;;;;;5096076;27;45419;-69
2023/10/08 01:05:46;;;;;;;;;24.50;18.75;;;;;;;;5088460;27;45424;-69
2023/10/08 01:08:12;;;;;;;;;22.00;18.50;;;;;;;;5056875;28;46813;-69
2023/10/08 01:10:39;;;;;;;;;20.75;18.00;;;;;;;;5075418;28;45512;-69
2023/10/08 01:13:07;;;;;;;;;16.25;14.00;;;;;;;;5075770;28;45307;-70
2023/10/08 01:15:35;;;;;;;;;21.00;20.25;;;;;;;;5075237;28;45499;-69
2023/10/08 01:18:01;;;;;;;;;20.50;20.00;;;;;;;;5056538;28;47356;-70
2023/10/08 01:21:29;;;;;;;;;20.25;18.25;;;;;;;;5056214;28;45401;-70
2023/10/08 01:23:20;;;;;;;;;21.75;18.25;;;;;;;;5061579;28;45357;-69
2023/10/08 01:25:57;;;;;;;;;18.25;17.50;;;;;;;;5075043;28;45443;-69
2023/10/08 01:28:26;;;;;;;;;18.75;17.25;;;;;;;;5075394;28;45686;-69
2023/10/08 01:30:57;;;;;;;;;22.75;20.50;;;;;;;;5057029;28;45410;-66
2023/10/08 01:33:23;;;;;;;;;23.25;22.25;;;;;;;;5075046;28;45373;-69
2023/10/08 01:35:49;;;;;;;;;34.00;28.00;;;;;;;;5056887;28;45535;-68
2023/10/08 01:38:14;;;;;;;;;27.75;26.00;;;;;;;;5074957;28;45946;-69
2023/10/08 01:40:43;;;;;;;;;25.75;21.50;;;;;;;;5075403;28;45333;-68
2023/10/08 01:43:09;;;;;;;;;21.50;19.75;;;;;;;;5075388;28;45496;-69
2023/10/08 01:45:40;;;;;;;;;16.00;15.00;;;;;;;;5075212;28;45488;-68
2023/10/08 01:48:09;;;;;;;;;21.25;19.50;;;;;;;;5073361;28;46363;-68
2023/10/08 01:50:35;;;;;;;;;22.80;18.80;;;;;;;;5075132;28;45360;-69
2023/10/08 01:53:00;;;;;;;;;19.00;15.75;;;;;;;;5056761;28;45507;-68
2023/10/08 01:55:26;;;;;;;;;19.50;17.75;;;;;;;;5075018;28;45531;-68
2023/10/08 01:57:52;;;;;;;;;24.25;22.00;;;;;;;;5074921;28;46342;-68
2023/10/08 02:00:19;;;;;;;;;27.25;25.75;;;;;;;;5074603;28;45450;-68
2023/10/08 02:02:45;;;;;;;;;35.75;31.75;;;;;;;;5075291;28;45574;-68
2023/10/08 02:05:14;;;;;;;;;26.25;22.75;;;;;;;;5077843;27;45527;-68
2023/10/08 02:07:39;;;;;;;;;27.25;24.50;;;;;;;;5076670;27;47399;-69
2023/10/08 02:10:07;;;;;;;;;26.25;23.50;;;;;;;;5095308;27;45359;-68
2023/10/08 02:12:32;;;;;;;;;21.25;21.00;;;;;;;;5095182;27;45496;-69
2023/10/08 02:14:57;;;;;;;;;26.25;24.75;;;;;;;;5094500;27;45384;-69
2023/10/08 02:17:22;;;;;;;;;26.50;24.75;;;;;;;;5094772;27;45587;-69
2023/10/08 02:19:48;;;;;;;;;23.75;21.25;;;;;;;;5094867;27;45354;-69
2023/10/08 02:22:13;;;;;;;;;20.00;20.00;;;;;;;;5076915;27;45404;-68
2023/10/08 02:24:39;;;;;;;;;20.00;17.75;;;;;;;;5095041;27;45459;-68
2023/10/08 02:27:06;;;;;;;;;23.50;21.00;;;;;;;;5094582;27;46014;-68
2023/10/08 02:29:31;;;;;;;;;18.80;17.60;;;;;;;;5094452;27;45364;-69
2023/10/08 02:31:57;;;;;;;;;20.00;20.00;;;;;;;;5098472;27;45354;-68
2023/10/08 02:34:22;;;;;;;;;23.00;21.50;;;;;;;;5098078;27;45460;-68
2023/10/08 02:36:48;;;;;;;;;17.75;16.50;;;;;;;;5098443;27;45437;-69
2023/10/08 02:39:25;;;;;;;;;22.00;19.25;;;;;;;;5098703;27;45386;-68
2023/10/08 02:41:51;;;;;;;;;15.50;14.00;;;;;;;;5079928;27;45443;-68
2023/10/08 02:44:17;;;;;;;;;19.25;17.25;;;;;;;;5098101;27;45494;-68
2023/10/08 02:46:44;;;;;;;;;18.00;18.00;;;;;;;;5098020;27;45488;-68
2023/10/08 02:49:13;;;;;;;;;19.00;14.80;;;;;;;;5098030;27;45418;-69
2023/10/08 02:51:41;;;;;;;;;15.50;14.25;;;;;;;;5098543;27;45399;-68
2023/10/08 02:54:16;;;;;;;;;17.50;14.50;;;;;;;;5097821;27;45360;-68
2023/10/08 02:56:44;;;;;;;;;22.00;19.75;;;;;;;;5098169;27;45522;-69
2023/10/08 02:59:12;;;;;;;;;17.25;15.25;;;;;;;;5079558;27;45379;-69
2023/10/08 03:01:39;;;;;;;;;20.25;18.75;;;;;;;;5098180;27;45532;-69
2023/10/08 03:04:14;;;;;;;;;18.00;15.00;;;;;;;;5097667;27;45578;-68
2023/10/08 03:06:40;;;;;;;;;19.00;16.50;;;;;;;;5081934;27;46185;-69
2023/10/08 03:09:07;;;;;;;;;17.25;16.00;;;;;;;;5077556;28;45372;-69
2023/10/08 03:11:35;;;;;;;;;18.75;18.75;;;;;;;;5077625;28;45377;-68
2023/10/08 03:14:00;;;;;;;;;14.25;14.25;;;;;;;;5077348;28;45588;-68
2023/10/08 03:16:28;;;;;;;;;16.25;15.25;;;;;;;;5077430;28;45421;-69
2023/10/08 03:18:57;;;;;;;;;19.50;16.75;;;;;;;;5077209;28;45370;-68
2023/10/08 03:21:44;;;;;;;;;20.75;19.50;;;;;;;;5077640;28;45453;-68
2023/10/08 03:24:29;;;;;;;;;16.25;16.25;;;;;;;;5077213;28;45442;-68
2023/10/08 03:26:56;;;;;;;;;15.75;15.75;;;;;;;;5077263;28;45662;-69
2023/10/08 03:29:21;;;;;;;;;22.00;20.00;;;;;;;;5076965;28;45397;-68
2023/10/08 03:34:15;;;;;;;;;21.00;19.00;;;;;;;;5076619;28;45602;-68
2023/10/08 03:36:47;;;;;;;;;17.25;15.25;;;;;;;;5077011;28;45497;-68
2023/10/08 03:39:14;;;;;;;;;18.50;16.75;;;;;;;;5076525;28;45472;-68
2023/10/08 03:41:51;;;;;;;;;20.25;18.00;;;;;;;;5076004;28;45302;-68
2023/10/08 03:44:16;;;;;;;;;22.25;18.00;;;;;;;;5076726;28;45456;-68
2023/10/08 03:46:46;;;;;;;;;18.50;17.50;;;;;;;;5076662;28;46051;-68
2023/10/08 03:49:24;;;;;;;;;25.50;22.00;;;;;;;;5076605;28;45369;-68
2023/10/08 03:51:53;;;;;;;;;21.00;20.75;;;;;;;;5076846;28;45507;-69
2023/10/08 03:54:20;;;;;;;;;18.00;17.00;;;;;;;;5076922;28;45567;-68
2023/10/08 03:56:46;;;;;;;;;25.75;21.50;;;;;;;;5076483;28;45682;-68
2023/10/08 03:59:29;;;;;;;;;24.25;23.00;;;;;;;;5076675;28;45611;-68
2023/10/08 04:01:59;;;;;;;;;22.75;21.75;;;;;;;;5076789;28;45417;-69
2023/10/08 04:04:30;;;;;;;;;20.00;17.25;;;;;;;;5076354;28;45316;-69
2023/10/08 04:07:24;;;;;;;;;18.00;17.25;;;;;;;;5094010;27;45585;-69
2023/10/08 04:09:42;;;;;;;;;18.50;18.50;;;;;;;;5096713;27;45454;-68
2023/10/08 04:12:10;;;;;;;;;20.50;19.50;;;;;;;;5097243;27;45368;-68
2023/10/08 04:14:35;;;;;;;;;19.25;19.25;;;;;;;;5096609;27;45651;-68
2023/10/08 04:17:01;;;;;;;;;17.00;17.00;;;;;;;;5096847;27;46266;-68
2023/10/08 04:19:29;;;;;;;;;24.25;20.00;;;;;;;;5096434;27;45428;-69
2023/10/08 04:21:54;;;;;;;;;20.50;18.00;;;;;;;;5096835;27;45285;-68
2023/10/08 04:24:20;;;;;;;;;20.50;19.00;;;;;;;;5096694;27;45571;-68
2023/10/08 04:26:46;;;;;;;;;18.25;17.50;;;;;;;;5096695;27;45664;-68
2023/10/08 04:29:16;;;;;;;;;19.75;19.50;;;;;;;;5096456;27;45389;-68
2023/10/08 04:31:46;;;;;;;;;20.00;20.00;;;;;;;;5077869;27;45474;-69
2023/10/08 04:34:22;;;;;;;;;18.75;16.50;;;;;;;;5095760;27;45416;-68
2023/10/08 04:36:54;;;;;;;;;21.75;20.25;;;;;;;;5096528;27;46009;-67
2023/10/08 04:39:26;;;;;;;;;25.50;24.00;;;;;;;;5097101;27;45298;-69
2023/10/08 04:41:53;;;;;;;;;18.50;18.25;;;;;;;;5096838;27;45416;-68
2023/10/08 04:44:19;;;;;;;;;34.00;30.00;;;;;;;;5096157;27;45443;-68
2023/10/08 04:46:47;;;;;;;;;33.67;32.33;;;;;;;;5096209;27;45500;-68
2023/10/08 04:49:32;;;;;;;;;36.33;32.00;;;;;;;;5095847;27;45388;-69
2023/10/08 04:51:58;;;;;;;;;45.00;36.33;;;;;;;;5096607;27;45294;-68
2023/10/08 04:54:24;;;;;;;;;48.67;38.67;;;;;;;;5095202;27;45349;-68
2023/10/08 04:56:49;;;;;;;;;33.00;30.00;;;;;;;;5096143;27;46511;-68
2023/10/08 04:59:14;;;;;;;;;34.33;30.67;;;;;;;;5077371;27;45396;-68
2023/10/08 05:02:12;;;;;;;;;27.25;27.00;;;;;;;;5095933;27;45381;-68
2023/10/08 05:04:45;;;;;;;;;27.00;22.00;;;;;;;;5095402;27;45558;-68
2023/10/08 05:12:38;;;;;;;;;22.50;20.00;;;;;;;;5075288;28;45353;-68
2023/10/08 05:23:20;;;;;;;;;21.50;19.25;;;;;;;;5074330;28;45446;-69
2023/10/08 05:25:58;;;;;;;;;16.50;16.00;;;;;;;;5074699;28;45473;-68
2023/10/08 05:28:27;;;;;;;;;23.75;20.00;;;;;;;;5056943;28;47396;-68
2023/10/08 05:30:55;;;;;;;;;24.00;21.75;;;;;;;;5075299;28;45371;-68
2023/10/08 05:33:44;;;;;;;;;24.25;21.00;;;;;;;;5075111;28;45364;-68
2023/10/08 05:36:18;;;;;;;;;16.50;16.50;;;;;;;;5075176;28;45531;-68
2023/10/08 05:38:51;;;;;;;;;23.00;22.00;;;;;;;;5074835;28;45428;-69
2023/10/08 05:41:30;;;;;;;;;19.00;18.75;;;;;;;;5057026;28;45455;-68
2023/10/08 05:44:13;;;;;;;;;21.25;18.75;;;;;;;;5075589;28;45370;-68
2023/10/08 05:47:06;;;;;;;;;19.50;16.75;;;;;;;;5075048;28;45432;-69
2023/10/08 06:05:23;;;;;;;;;21.50;21.00;;;;;;;;5075421;27;45333;-68
2023/10/08 06:10:56;;;;;;;;;20.25;20.25;;;;;;;;5094509;27;45369;-69
2023/10/08 06:13:44;;;;;;;;;20.50;17.25;;;;;;;;5089794;27;45359;-69
2023/10/08 06:16:13;;;;;;;;;23.00;20.75;;;;;;;;5095123;27;45325;-68
2023/10/08 06:18:39;;;;;;;;;22.75;19.25;;;;;;;;5094259;27;45579;-68
2023/10/08 06:21:11;;;;;;;;;20.25;18.75;;;;;;;;5094690;27;46561;-69
2023/10/08 06:23:41;;;;;;;;;19.50;19.50;;;;;;;;5094853;27;45525;-68
2023/10/08 06:28:36;;;;;;;;;18.25;17.00;;;;;;;;5094427;27;45480;-68
2023/10/08 06:31:06;;;;;;;;;20.75;20.00;;;;;;;;5095241;27;46564;-69
2023/10/08 06:33:33;;;;;;;;;23.75;20.50;;;;;;;;5094680;27;45413;-69
2023/10/08 06:36:02;;;;;;;;;20.25;19.75;;;;;;;;5094812;27;45323;-68
2023/10/08 06:38:31;;;;;;;;;16.75;16.00;;;;;;;;5075526;27;45704;-69
2023/10/08 06:41:00;;;;;;;;;18.00;17.50;;;;;;;;5094107;27;45381;-69
2023/10/08 06:43:28;;;;;;;;;18.00;17.00;;;;;;;;5094296;27;45255;-69
2023/10/08 06:45:57;;;;;;;;;19.50;18.00;;;;;;;;5094248;27;45481;-69
2023/10/08 06:48:23;;;;;;;;;23.75;22.50;;;;;;;;5094278;27;45364;-70
2023/10/08 06:50:49;;;;;;;;;19.00;18.75;;;;;;;;5094138;27;45849;-69
2023/10/08 06:53:17;;;;;;;;;16.75;16.00;;;;;;;;5075505;27;45913;-69
2023/10/08 06:55:43;;;;;;;;;18.50;18.25;;;;;;;;5093974;27;45551;-69
2023/10/08 06:58:09;;;;;;;;;22.25;19.25;;;;;;;;5093685;27;45427;-69
2023/10/08 07:00:48;;;;;;;;;22.50;19.25;;;;;;;;5094014;27;45431;-69
2023/10/08 07:03:20;;;;;;;;;19.75;17.75;;;;;;;;5093784;27;45389;-69
2023/10/08 07:05:59;;;;;;;;;18.00;16.75;;;;;;;;5086184;27;45434;-69
2023/10/08 07:08:25;;;;;;;;;11.50;9.00;;;;;;;;5073421;28;45395;-68
2023/10/08 07:10:51;;;;;;;;;20.00;18.00;;;;;;;;5073201;28;46048;-69
2023/10/08 07:13:21;;;;;;;;;19.00;19.00;;;;;;;;5055048;28;45441;-69
2023/10/08 07:15:49;;;;;;;;;20.00;17.75;;;;;;;;5055411;28;45297;-69
2023/10/08 07:18:14;;;;;;;;;21.50;20.00;;;;;;;;5074990;28;45520;-69
2023/10/08 07:20:45;;;;;;;;;21.00;18.50;;;;;;;;5058576;28;45654;-69
2023/10/08 07:23:18;;;;;;;;;16.00;14.75;;;;;;;;5057997;28;45392;-69
2023/10/08 07:25:46;;;;;;;;;20.25;17.00;;;;;;;;5076858;28;45456;-69
2023/10/08 07:28:12;;;;;;;;;23.75;21.00;;;;;;;;5076870;28;45327;-69
2023/10/08 07:30:43;;;;;;;;;18.50;17.75;;;;;;;;5058409;28;47206;-69
2023/10/08 07:33:17;;;;;;;;;19.50;17.75;;;;;;;;5076294;28;45357;-68
2023/10/08 07:35:51;;;;;;;;;24.50;22.50;;;;;;;;5076618;28;45401;-67
2023/10/08 07:38:16;;;;;;;;;22.75;21.50;;;;;;;;5076673;28;45376;-70
2023/10/08 07:40:41;;;;;;;;;18.00;16.50;;;;;;;;5076573;28;45346;-69
2023/10/08 07:43:08;;;;;;;;;18.25;18.25;;;;;;;;5076542;28;45447;-67
2023/10/08 07:45:35;;;;;;;;;21.00;21.00;;;;;;;;5076834;28;45398;-68
2023/10/08 07:48:00;;;;;;;;;16.00;16.00;;;;;;;;5076173;28;45415;-67
2023/10/08 07:50:28;;;;;;;;;18.25;16.50;;;;;;;;5076129;28;45479;-69
2023/10/08 07:52:55;;;;;;;;;21.25;19.00;;;;;;;;5076303;28;45334;-69
2023/10/08 07:55:22;;;;;;;;;17.00;17.00;;;;;;;;5076753;28;45468;-68
2023/10/08 07:57:48;;;;;;;;;19.75;17.75;;;;;;;;5076483;28;45478;-68
2023/10/08 08:00:22;;;;;;;;;18.75;17.75;;;;;;;;5076062;28;46287;-68
2023/10/08 08:02:48;;;;;;;;;21.25;19.75;;;;;;;;5075381;28;45538;-68
2023/10/08 08:05:16;;;;;;;;;18.00;17.00;;;;;;;;5080042;27;45408;-68
2023/10/08 08:07:43;;;;;;;;;18.25;17.50;;;;;;;;5096518;27;45443;-68
2023/10/08 08:10:10;;;;;;;;;18.00;17.00;;;;;;;;5096295;27;45656;-68
2023/10/08 08:12:37;;;;;;;;;21.50;19.50;;;;;;;;5096287;27;45405;-68
2023/10/08 08:15:14;;;;;;;;;21.00;21.00;;;;;;;;5078047;27;45449;-68
2023/10/08 08:17:39;;;;;;;;;14.25;14.00;;;;;;;;5096499;27;45427;-68
2023/10/08 08:20:17;;;;;;;;;15.00;12.75;;;;;;;;5096341;27;45456;-68
2023/10/08 08:22:49;;;;;;;;;15.20;15.20;;;;;;;;5096367;27;45376;-67
2023/10/08 08:25:15;;;;;;;;;14.00;14.00;;;;;;;;5077944;27;45422;-69
2023/10/08 08:27:43;;;;;;;;;18.50;18.25;;;;;;;;5095665;27;46070;-68
2023/10/08 08:30:15;;;;;;;;;19.00;16.50;;;;;;;;5096188;27;46264;-68
2023/10/08 08:32:43;;;;;;;;;20.20;14.80;;;;;;;;5077652;27;45545;-68
2023/10/08 08:35:11;;;;;;;;;25.25;16.75;;;;;;;;5095773;27;45310;-68
2023/10/08 08:37:40;;;;;;;;;18.25;16.75;;;;;;;;5095966;27;45538;-69
2023/10/08 08:40:10;;;;;;;;;17.75;14.25;;;;;;;;5096007;27;46259;-68
2023/10/08 08:42:35;;;;;;;;;15.20;14.20;;;;;;;;5095733;27;45329;-69
2023/10/08 08:45:08;;;;;;;;;15.75;15.75;;;;;;;;5095667;27;45550;-68
2023/10/08 08:47:34;;;;;;;;;14.00;14.00;;;;;;;;5095405;27;46148;-68
2023/10/08 08:50:08;;;;;;;;;15.00;14.00;;;;;;;;5095168;27;46532;-68
2023/10/08 08:52:33;;;;;;;;;12.20;11.80;;;;;;;;5095440;27;45448;-67
2023/10/08 08:55:00;;;;;;;;;17.75;15.75;;;;;;;;5095772;27;45358;-68
2023/10/08 08:57:25;;;;;;;;;14.00;13.75;;;;;;;;5095870;27;45491;-68
2023/10/08 08:59:55;;;;;;;;;12.25;11.25;;;;;;;;5095129;27;45427;-68
2023/10/08 09:02:20;;;;;;;;;13.60;13.60;;;;;;;;5095201;27;45460;-68
2023/10/08 09:04:48;;;;;;;;;14.50;14.00;;;;;;;;5095538;27;45356;-68
2023/10/08 09:07:13;;;;;;;;;12.75;12.75;;;;;;;;5054430;28;45474;-68
2023/10/08 09:09:39;;;;;;;;;14.25;11.75;;;;;;;;5036451;28;45794;-69
2023/10/08 09:12:05;;;;;;;;;13.50;13.50;;;;;;;;5054543;28;45390;-67
2023/10/08 09:14:32;;;;;;;;;14.50;13.50;;;;;;;;5054627;28;45319;-68
2023/10/08 09:16:57;;;;;;;;;14.00;13.00;;;;;;;;5054693;28;45489;-68
2023/10/08 09:19:26;;;;;;;;;13.75;13.50;;;;;;;;5052971;28;45614;-68
2023/10/08 09:22:05;;;;;;;;;14.40;12.00;;;;;;;;5054325;28;45387;-67
2023/10/08 09:24:31;;;;;;;;;11.00;11.00;;;;;;;;5054603;28;45361;-67
2023/10/08 09:26:58;;;;;;;;;15.75;13.25;;;;;;;;5054437;28;45478;-68
2023/10/08 09:29:23;;;;;;;;;15.50;15.50;;;;;;;;5036016;28;47310;-68
2023/10/08 09:31:56;;;;;;;;;14.25;14.00;;;;;;;;5053985;28;45420;-68
2023/10/08 09:34:22;;;;;;;;;17.50;16.00;;;;;;;;5053804;28;45427;-68
2023/10/08 09:36:48;;;;;;;;;16.50;14.75;;;;;;;;5054388;28;45391;-68
2023/10/08 09:39:23;;;;;;;;;13.75;13.00;;;;;;;;5054126;28;46365;-68
2023/10/08 09:41:49;;;;;;;;;13.80;13.40;;;;;;;;5053760;28;45413;-68
2023/10/08 09:44:14;;;;;;;;;11.60;10.80;;;;;;;;5053998;28;45413;-68
2023/10/08 09:46:42;;;;;;;;;13.25;13.25;;;;;;;;5054213;28;45462;-68
2023/10/08 09:49:11;;;;;;;;;13.40;12.00;;;;;;;;5053656;28;45612;-68
2023/10/08 09:51:39;;;;;;;;;15.60;13.80;;;;;;;;5053722;28;45379;-68
2023/10/08 09:54:10;;;;;;;;;11.20;11.20;;;;;;;;5053850;28;45348;-67
2023/10/08 09:56:35;;;;;;;;;14.25;12.50;;;;;;;;5054084;28;45640;-68
2023/10/08 09:59:00;;;;;;;;;14.25;12.25;;;;;;;;5053794;28;46187;-70
2023/10/08 10:01:26;;;;;;;;;14.25;11.50;;;;;;;;5035464;28;45458;-69
2023/10/08 10:03:52;;;;;;;;;15.00;14.75;;;;;;;;5053307;28;45442;-70
2023/10/08 10:06:18;;;;;;;;;15.25;12.75;;;;;;;;5053370;28;45595;-67
2023/10/08 10:08:43;;;;;;;;;17.75;15.25;;;;;;;;5053275;28;47155;-67
2023/10/08 10:11:10;;;;;;;;;14.00;12.50;;;;;;;;5052931;28;45348;-67
2023/10/08 10:13:39;;;;;;;;;13.20;12.20;;;;;;;;5053851;28;45407;-68
2023/10/08 10:16:07;;;;;;;;;11.75;11.25;;;;;;;;5053739;28;45592;-68
2023/10/08 10:18:33;;;;;;;;;10.25;10.25;;;;;;;;5052933;28;46571;-68
2023/10/08 10:21:02;;;;;;;;;16.25;14.50;;;;;;;;5053331;28;45416;-68
2023/10/08 10:23:33;;;;;;;;;13.20;12.20;;;;;;;;5053732;28;45450;-68
2023/10/08 10:25:59;;;;;;;;;11.50;11.00;;;;;;;;5053447;28;45600;-67
2023/10/08 10:28:24;;;;;;;;;15.50;11.25;;;;;;;;5053744;28;46676;-68
2023/10/08 10:30:50;;;;;;;;;13.50;11.50;;;;;;;;5053669;28;45405;-68
2023/10/08 10:33:16;;;;;;;;;14.00;11.00;;;;;;;;5053465;28;45449;-68
2023/10/08 10:35:43;;;;;;;;;14.25;13.75;;;;;;;;5053294;28;45550;-67
2023/10/08 10:38:09;;;;;;;;;12.25;12.25;;;;;;;;5053327;28;46416;-68
2023/10/08 10:40:40;;;;;;;;;14.25;12.50;;;;;;;;5053400;28;45839;-68
2023/10/08 10:43:15;;;;;;;;;11.00;11.00;;;;;;;;5053714;28;45399;-68
2023/10/08 10:45:43;;;;;;;;;16.75;11.75;;;;;;;;5053599;28;45622;-68
2023/10/08 10:53:32;;;;;;;;;11.00;10.80;;;;;;;;5056296;28;45544;-67
2023/10/08 10:56:09;;;;;;;;;13.80;13.80;;;;;;;;5056982;28;45496;-68
2023/10/08 10:58:39;;;;;;;;;11.80;11.00;;;;;;;;5056577;28;45416;-68
2023/10/08 11:01:21;;;;;;;;;13.00;12.60;;;;;;;;5056841;28;45378;-68
2023/10/08 11:03:48;;;;;;;;;12.80;12.80;;;;;;;;5056739;28;45370;-68
2023/10/08 11:06:22;;;;;;;;;12.40;9.60;;;;;;;;5080939;27;45508;-68
2023/10/08 11:08:48;;;;;;;;;11.80;11.60;;;;;;;;5097491;27;45366;-68
2023/10/08 11:11:17;;;;;;;;;12.20;11.60;;;;;;;;5096740;27;45459;-68
2023/10/08 11:13:42;;;;;;;;;13.20;10.80;;;;;;;;5097451;27;45403;-68
2023/10/08 11:16:09;;;;;;;;;14.25;13.75;;;;;;;;5097043;27;45478;-68
2023/10/08 11:18:34;;;;;;;;;15.40;13.40;;;;;;;;5096943;27;47346;-68
2023/10/08 11:21:16;;;;;;;;;13.75;12.50;;;;;;;;5097086;27;45766;-68
2023/10/08 11:23:53;;;;;;;;;12.60;10.80;;;;;;;;5097217;27;45330;-68
2023/10/08 11:26:19;;;;;;;;;7.60;7.60;;;;;;;;5097265;27;45431;-68
2023/10/08 11:28:47;;;;;;;;;10.80;10.00;;;;;;;;5096927;27;45432;-68
2023/10/08 11:31:14;;;;;;;;;12.40;11.00;;;;;;;;5097344;27;45404;-68
2023/10/08 11:33:40;;;;;;;;;12.00;11.00;;;;;;;;5096969;27;45419;-67
2023/10/08 11:36:07;;;;;;;;;12.50;12.50;;;;;;;;5096567;27;45352;-67
2023/10/08 11:38:42;;;;;;;;;16.20;12.80;;;;;;;;5096711;27;45599;-68
2023/10/08 11:41:13;;;;;;;;;15.00;11.20;;;;;;;;5096846;27;45471;-68
2023/10/08 11:43:39;;;;;;;;;19.20;13.80;;;;;;;;5096649;27;45418;-68
2023/10/08 11:46:05;;;;;;;;;10.00;8.00;;;;;;;;5096781;27;45597;-68
2023/10/08 11:48:32;;;;;;;;;9.75;8.50;;;;;;;;5096325;27;47076;-68
2023/10/08 11:50:57;;;;;;;;;16.80;13.00;;;;;;;;5096732;27;45609;-68
2023/10/08 11:53:24;;;;;;;;;15.75;12.75;;;;;;;;5096489;27;45505;-69
2023/10/08 11:55:49;;;;;;;;;13.00;11.80;;;;;;;;5097014;27;45527;-67
2023/10/08 11:58:20;;;;;;;;;10.80;10.60;;;;;;;;5096769;27;46505;-68
2023/10/08 12:00:45;;;;;;;;;8.00;8.00;;;;;;;;5096455;27;45432;-68
2023/10/08 12:03:11;;;;;;;;;13.75;12.25;;;;;;;;5095892;27;45326;-68
2023/10/08 12:05:38;;;;;;;;;13.00;13.00;;;;;;;;5088223;27;45341;-68
2023/10/08 12:08:08;;;;;;;;;14.00;13.00;;;;;;;;5076314;28;46185;-67
2023/10/08 12:10:34;;;;;;;;;12.60;10.20;;;;;;;;5075968;28;45461;-68
2023/10/08 12:12:59;;;;;;;;;13.20;12.40;;;;;;;;5075307;28;45480;-68
2023/10/08 12:15:34;;;;;;;;;14.50;13.50;;;;;;;;5075238;28;45342;-68
2023/10/08 12:18:08;;;;;;;;;14.60;10.60;;;;;;;;5074173;28;46145;-68
2023/10/08 12:20:46;;;;;;;;;11.00;11.00;;;;;;;;5075671;28;45448;-68
2023/10/08 12:23:18;;;;;;;;;10.60;10.00;;;;;;;;5057453;28;45426;-68
2023/10/08 12:25:51;;;;;;;;;10.60;9.20;;;;;;;;5074835;28;45387;-68
2023/10/08 12:28:16;;;;;;;;;11.80;9.60;;;;;;;;5074539;28;45550;-68
2023/10/08 12:30:42;;;;;;;;;8.25;8.25;;;;;;;;5074704;28;45424;-67
2023/10/08 12:33:12;;;;;;;;;12.00;11.00;;;;;;;;5075072;28;45345;-68
2023/10/08 12:35:40;;;;;;;;;12.40;11.80;;;;;;;;5075246;28;45500;-67
2023/10/08 12:38:05;;;;;;;;;12.80;10.80;;;;;;;;5075023;28;45381;-68
2023/10/08 12:40:42;;;;;;;;;11.25;11.25;;;;;;;;5075258;28;45356;-68
2023/10/08 12:43:07;;;;;;;;;12.40;11.20;;;;;;;;5075667;28;45405;-67
2023/10/08 12:45:32;;;;;;;;;14.00;14.00;;;;;;;;5075523;28;45445;-67
2023/10/08 12:47:58;;;;;;;;;10.00;9.25;;;;;;;;5074603;28;45431;-67
2023/10/08 12:50:45;;;;;;;;;11.75;10.25;;;;;;;;5074790;28;45328;-68
2023/10/08 12:53:11;;;;;;;;;12.40;11.00;;;;;;;;5074336;28;45337;-67
2023/10/08 12:55:39;;;;;;;;;10.40;9.40;;;;;;;;5074685;28;45545;-67
2023/10/08 12:58:09;;;;;;;;;14.40;10.60;;;;;;;;5074840;28;46544;-68
2023/10/08 13:00:37;;;;;;;;;12.60;10.60;;;;;;;;5074381;28;45329;-68
2023/10/08 13:03:05;;;;;;;;;13.80;12.00;;;;;;;;5074819;28;45388;-68
2023/10/08 13:05:30;;;;;;;;;11.00;9.60;;;;;;;;5081575;27;45514;-68
2023/10/08 13:07:56;;;;;;;;;11.00;9.75;;;;;;;;5095234;27;46154;-68
2023/10/08 13:10:22;;;;;;;;;11.00;10.00;;;;;;;;5095220;27;45416;-68
2023/10/08 13:12:48;;;;;;;;;16.80;12.40;;;;;;;;5095596;27;45346;-68
2023/10/08 13:15:13;;;;;;;;;10.25;8.75;;;;;;;;5094346;27;45321;-68
2023/10/08 13:17:42;;;;;;;;;10.50;10.00;;;;;;;;5094870;27;46141;-68
2023/10/08 13:20:11;;;;;;;;;11.60;11.60;;;;;;;;5094815;27;45446;-68
2023/10/08 13:22:37;;;;;;;;;9.60;9.60;;;;;;;;5095348;27;45479;-68
2023/10/08 13:25:04;;;;;;;;;12.50;11.25;;;;;;;;5094010;27;45287;-68
2023/10/08 13:27:30;;;;;;;;;9.00;7.80;;;;;;;;5094718;27;45422;-68
2023/10/08 13:29:55;;;;;;;;;14.50;12.50;;;;;;;;5094992;27;45278;-67
2023/10/08 13:32:20;;;;;;;;;10.00;8.75;;;;;;;;5095472;27;45427;-68
2023/10/08 13:34:46;;;;;;;;;10.00;10.00;;;;;;;;5076356;27;45516;-68
2023/10/08 13:37:11;;;;;;;;;14.00;11.25;;;;;;;;5076764;27;47830;-67
2023/10/08 13:39:36;;;;;;;;;12.00;9.75;;;;;;;;5095328;27;45313;-67
2023/10/08 13:42:03;;;;;;;;;10.75;9.75;;;;;;;;5095335;27;45778;-68
2023/10/08 13:44:30;;;;;;;;;11.20;10.60;;;;;;;;5094958;27;45402;-67
2023/10/08 13:46:57;;;;;;;;;11.20;11.20;;;;;;;;5094840;27;45605;-67
2023/10/08 13:49:22;;;;;;;;;10.00;9.40;;;;;;;;5094960;27;45338;-69
2023/10/08 13:51:55;;;;;;;;;8.25;8.25;;;;;;;;5076884;27;45651;-69
2023/10/08 13:54:21;;;;;;;;;9.80;8.80;;;;;;;;5076350;27;45501;-67
2023/10/08 13:56:48;;;;;;;;;8.75;8.00;;;;;;;;5094928;27;45483;-67
2023/10/08 13:59:13;;;;;;;;;11.00;8.80;;;;;;;;5094499;27;45247;-68
2023/10/08 14:01:40;;;;;;;;;10.00;9.50;;;;;;;;5094860;27;45276;-67
2023/10/08 14:04:06;;;;;;;;;11.40;7.60;;;;;;;;5093910;27;45566;-68
2023/10/08 14:06:32;;;;;;;;;9.75;8.50;;;;;;;;5079561;27;45353;-67
2023/10/08 14:08:57;;;;;;;;;9.00;9.00;;;;;;;;5074413;28;45566;-68
2023/10/08 14:11:23;;;;;;;;;10.50;8.25;;;;;;;;5074760;28;45419;-68
2023/10/08 14:13:52;;;;;;;;;10.20;9.00;;;;;;;;5055909;28;45552;-67
2023/10/08 14:16:18;;;;;;;;;8.60;8.40;;;;;;;;5073981;28;46375;-67
2023/10/08 14:18:50;;;;;;;;;8.00;6.75;;;;;;;;5073629;28;45463;-67
2023/10/08 14:21:17;;;;;;;;;12.20;8.00;;;;;;;;5074381;28;45491;-68
2023/10/08 14:23:43;;;;;;;;;9.40;9.40;;;;;;;;5074208;28;45393;-67
2023/10/08 14:26:08;;;;;;;;;6.25;6.25;;;;;;;;5074210;28;46073;-68
2023/10/08 14:28:40;;;;;;;;;6.25;6.25;;;;;;;;5077839;28;45760;-68
2023/10/08 14:31:15;;;;;;;;;9.20;7.00;;;;;;;;5077542;28;45485;-68
2023/10/08 14:33:55;;;;;;;;;11.20;9.00;;;;;;;;5076600;28;46076;-68
2023/10/08 14:44:34;;;;;;;;;10.00;8.60;;;;;;;;5077260;28;45314;-67
2023/10/08 14:46:59;;;;;;;;;8.60;8.00;;;;;;;;5076032;28;45376;-67
2023/10/08 14:49:25;;;;;;;;;9.75;6.00;;;;;;;;5058035;28;45380;-67
2023/10/08 14:51:53;;;;;;;;;9.25;7.75;;;;;;;;5076986;28;45365;-68
2023/10/08 14:54:18;;;;;;;;;12.80;9.80;;;;;;;;5076422;28;45619;-68
2023/10/08 14:56:43;;;;;;;;;8.75;6.50;;;;;;;;5077146;28;46164;-67
2023/10/08 14:59:09;;;;;;;;;10.75;10.75;;;;;;;;5077411;28;45457;-68
2023/10/08 15:01:34;;;;;;;;;10.25;9.50;;;;;;;;5058930;28;45404;-67
2023/10/08 15:04:03;;;;;;;;;7.50;7.50;;;;;;;;5076940;28;45391;-68
2023/10/08 15:06:30;;;;;;;;;8.20;7.40;;;;;;;;5090715;27;47112;-67
2023/10/08 15:08:55;;;;;;;;;10.80;10.00;;;;;;;;5097095;27;45360;-67
2023/10/08 15:11:21;;;;;;;;;11.00;8.25;;;;;;;;5097468;27;45552;-67
2023/10/08 15:13:46;;;;;;;;;10.00;10.00;;;;;;;;5097210;27;45536;-68
2023/10/08 15:16:13;;;;;;;;;9.00;9.00;;;;;;;;5097016;27;45521;-68
2023/10/08 15:18:42;;;;;;;;;12.40;8.80;;;;;;;;5096508;27;45511;-68